YXBS weather

Beaudesert Hospital Helipad
Beaudesert, Queensland, Australia

Public forecast

Using degrees Celsius for public forecast. Weather courtesy of forecast.io.

METAR (pilot weather report)

Closest report is RAAF Base Amberley, 25.8 nm (47.8 km) NW. Retrieved 2019/02/17 22:00 UTC (28 minutes ago):

YAMB 172200Z 18004KT 9999 FEW030 25/17 Q1012 NOSIG

TAF (pilot weather forecast)

Closest forecast is RAAF Base Amberley, 25.8 nm (47.8 km) NW. Retrieved 2019/02/17 18:00 UTC (4 hours ago):

TAF YAMB 171657Z 1718/1812 18003KT 9999 FEW035 FM172300 10010KT 9999 FEW040 FM180500 08016KT CAVOK FM180900 09008KT 9999 FEW025